createdAt,value
2022-08-20T00:01:28.932Z,22.24
2022-08-20T00:05:39.855Z,22.18
2022-08-20T00:09:48.337Z,22.11
2022-08-20T00:13:58.793Z,22.03
2022-08-20T00:18:07.563Z,21.95
2022-08-20T00:22:15.557Z,21.87
2022-08-20T00:26:24.743Z,21.84
2022-08-20T00:30:33.746Z,21.80
2022-08-20T00:34:42.383Z,21.77
2022-08-20T00:38:50.353Z,21.76
2022-08-20T00:43:00.683Z,21.74
2022-08-20T00:47:09.583Z,21.73
2022-08-20T00:51:23.560Z,21.73
2022-08-20T00:55:32.323Z,21.68
2022-08-20T00:59:42.603Z,21.63
2022-08-20T01:03:50.419Z,21.64
2022-08-20T01:07:59.285Z,21.64
2022-08-20T01:12:08.472Z,21.62
2022-08-20T01:16:21.070Z,21.65
2022-08-20T01:20:31.924Z,21.65
2022-08-20T01:24:41.866Z,21.66
2022-08-20T01:28:52.510Z,21.64
2022-08-20T01:33:00.528Z,21.60
2022-08-20T01:37:08.216Z,21.52
2022-08-20T01:41:35.239Z,21.48
2022-08-20T01:45:43.318Z,21.44
2022-08-20T01:49:53.665Z,21.39
2022-08-20T01:54:03.215Z,21.34
2022-08-20T01:58:11.395Z,21.32
2022-08-20T02:02:19.145Z,21.36
2022-08-20T02:06:29.292Z,21.38
2022-08-20T02:10:37.549Z,21.32
2022-08-20T02:14:47.840Z,21.24
2022-08-20T02:18:58.687Z,21.15
2022-08-20T02:23:07.235Z,21.08
2022-08-20T02:27:16.299Z,20.99
2022-08-20T02:31:25.415Z,20.98
2022-08-20T02:35:33.787Z,20.98
2022-08-20T02:39:41.463Z,20.98
2022-08-20T02:43:49.952Z,21.00
2022-08-20T02:47:59.331Z,20.98
2022-08-20T02:52:08.216Z,20.97
2022-08-20T02:56:18.293Z,20.95
2022-08-20T03:00:26.828Z,20.88
2022-08-20T03:04:34.606Z,20.87
2022-08-20T03:08:42.969Z,20.93
2022-08-20T03:12:50.837Z,20.98
2022-08-20T03:16:59.757Z,21.02
2022-08-20T03:21:09.865Z,21.01
2022-08-20T03:25:18.193Z,20.98
2022-08-20T03:29:25.891Z,21.00
2022-08-20T03:33:33.532Z,21.05
2022-08-20T03:37:42.209Z,21.13
2022-08-20T03:41:56.179Z,21.17
2022-08-20T03:46:04.938Z,21.17
2022-08-20T03:50:33.002Z,21.20
2022-08-20T03:54:40.694Z,21.25
2022-08-20T03:58:49.969Z,21.27
2022-08-20T04:02:57.778Z,21.28
2022-08-20T04:07:12.733Z,21.29
2022-08-20T04:11:20.732Z,21.29
2022-08-20T04:15:28.975Z,21.27
2022-08-20T04:19:37.082Z,21.27
2022-08-20T04:23:44.825Z,21.27
2022-08-20T04:27:52.728Z,21.29
2022-08-20T04:32:02.772Z,21.32
2022-08-20T04:36:14.753Z,21.36
2022-08-20T04:40:42.239Z,21.39
2022-08-20T04:44:50.005Z,21.41
2022-08-20T04:48:58.390Z,21.44
2022-08-20T04:53:07.160Z,21.47
2022-08-20T04:57:14.971Z,21.49
2022-08-20T05:01:24.457Z,21.46
2022-08-20T05:05:32.505Z,21.50
2022-08-20T05:09:43.821Z,21.59
2022-08-20T05:13:53.836Z,21.66
2022-08-20T05:18:06.287Z,21.70
2022-08-20T05:22:13.928Z,21.75
2022-08-20T05:26:23.097Z,21.77
2022-08-20T05:30:34.296Z,21.80
2022-08-20T05:34:43.541Z,21.82
2022-08-20T05:38:52.542Z,21.82
2022-08-20T05:43:00.490Z,21.83
2022-08-20T05:47:09.497Z,21.86
2022-08-20T05:51:18.877Z,21.88
2022-08-20T05:55:26.635Z,21.90
2022-08-20T05:59:36.971Z,21.91
2022-08-20T06:04:02.149Z,21.94
2022-08-20T06:08:12.015Z,21.94
2022-08-20T06:12:21.287Z,21.93
2022-08-20T06:16:29.636Z,21.93
2022-08-20T06:20:40.144Z,21.90
2022-08-20T06:24:48.197Z,21.87
2022-08-20T06:28:55.947Z,21.87
2022-08-20T06:33:03.453Z,21.90
2022-08-20T06:37:19.224Z,21.98
2022-08-20T06:41:36.133Z,22.07
2022-08-20T06:45:45.238Z,22.12
2022-08-20T06:49:53.050Z,22.19
2022-08-20T06:54:00.647Z,22.22
2022-08-20T06:58:15.634Z,22.21
2022-08-20T07:02:38.635Z,22.21
2022-08-20T07:06:48.404Z,22.21
2022-08-20T07:10:56.197Z,22.22
2022-08-20T07:15:03.665Z,22.21
2022-08-20T07:19:11.396Z,22.27
2022-08-20T07:23:19.107Z,22.33
2022-08-20T07:27:26.852Z,22.39
2022-08-20T07:31:52.448Z,22.49
2022-08-20T07:36:03.863Z,22.60
2022-08-20T07:40:15.902Z,22.71
2022-08-20T07:44:30.919Z,22.85
2022-08-20T07:48:42.105Z,22.95
2022-08-20T07:52:52.742Z,23.00
2022-08-20T07:57:04.105Z,23.09
2022-08-20T08:01:12.308Z,23.22
2022-08-20T08:05:20.076Z,23.39
2022-08-20T08:09:28.261Z,23.56
2022-08-20T08:13:38.777Z,23.68
2022-08-20T08:17:48.723Z,23.81
2022-08-20T08:21:58.628Z,23.93
2022-08-20T08:26:06.702Z,24.01
2022-08-20T08:30:23.933Z,24.17
2022-08-20T08:34:32.194Z,24.27
2022-08-20T08:38:45.953Z,24.33
2022-08-20T08:42:58.469Z,24.47
2022-08-20T08:47:14.093Z,24.68
2022-08-20T08:51:37.632Z,24.82
2022-08-20T08:55:45.578Z,24.94
2022-08-20T09:00:04.240Z,25.16
2022-08-20T09:04:13.448Z,25.32
2022-08-20T09:08:24.288Z,25.35
2022-08-20T09:12:33.399Z,25.48
2022-08-20T09:16:52.431Z,25.58
2022-08-20T09:21:01.410Z,25.74
2022-08-20T09:25:10.452Z,25.85
2022-08-20T09:29:18.489Z,25.76
2022-08-20T09:33:26.650Z,25.70
2022-08-20T09:37:37.695Z,25.68
2022-08-20T09:41:46.036Z,25.86
2022-08-20T09:45:53.829Z,26.02
2022-08-20T09:50:01.617Z,26.11
2022-08-20T09:54:10.736Z,26.14
2022-08-20T09:58:22.817Z,26.07
2022-08-20T10:02:31.090Z,26.14
2022-08-20T10:06:44.263Z,26.26
2022-08-20T10:10:56.000Z,26.15
2022-08-20T10:15:04.135Z,26.23
2022-08-20T10:19:11.963Z,26.42
2022-08-20T10:23:19.603Z,26.52
2022-08-20T10:27:27.225Z,26.60
2022-08-20T10:31:35.272Z,26.64
2022-08-20T10:35:42.818Z,26.81
2022-08-20T10:39:53.184Z,26.98
2022-08-20T10:44:01.164Z,26.92
2022-08-20T10:48:11.111Z,26.86
2022-08-20T10:52:19.688Z,26.75
2022-08-20T10:56:27.428Z,26.75
2022-08-20T11:00:35.219Z,26.90
2022-08-20T11:04:43.129Z,27.02
2022-08-20T11:08:50.775Z,27.00
2022-08-20T11:13:00.720Z,27.00
2022-08-20T11:17:11.625Z,27.03
2022-08-20T11:21:21.693Z,27.05
2022-08-20T11:25:29.781Z,26.99
2022-08-20T11:29:37.389Z,26.89
2022-08-20T11:33:45.874Z,26.93
2022-08-20T11:37:57.724Z,26.92
2022-08-20T11:42:06.038Z,27.09
2022-08-20T11:46:13.664Z,27.46
2022-08-20T11:50:25.602Z,27.72
2022-08-20T11:54:40.806Z,27.94
2022-08-20T11:58:48.912Z,27.94
2022-08-20T12:02:57.137Z,27.99
2022-08-20T12:07:15.036Z,27.99
2022-08-20T12:11:22.736Z,28.16
2022-08-20T12:15:30.168Z,28.37
2022-08-20T12:19:40.272Z,28.59
2022-08-20T12:23:48.973Z,28.76
2022-08-20T12:27:56.548Z,28.79
2022-08-20T12:32:05.488Z,28.74
2022-08-20T12:36:13.712Z,28.63
2022-08-20T12:40:31.764Z,28.46
2022-08-20T12:44:42.699Z,28.45
2022-08-20T12:48:50.135Z,28.40
2022-08-20T12:52:58.104Z,28.32
2022-08-20T12:57:08.017Z,28.18
2022-08-20T13:01:17.262Z,27.95
2022-08-20T13:05:25.008Z,27.78
2022-08-20T13:09:36.012Z,27.69
2022-08-20T13:13:48.527Z,27.67
2022-08-20T13:17:59.192Z,27.58
2022-08-20T13:22:09.108Z,27.51
2022-08-20T13:26:17.411Z,27.48
2022-08-20T13:30:25.624Z,27.52
2022-08-20T13:34:33.598Z,27.58
2022-08-20T13:38:41.762Z,27.60
2022-08-20T13:42:50.166Z,27.61
2022-08-20T13:46:58.268Z,27.62
2022-08-20T13:51:07.067Z,27.61
2022-08-20T13:55:16.827Z,27.57
2022-08-20T13:59:25.411Z,27.51
2022-08-20T14:03:36.112Z,27.43
2022-08-20T14:07:48.006Z,27.28
2022-08-20T14:11:55.691Z,27.13
2022-08-20T14:16:03.813Z,26.98
2022-08-20T14:20:16.086Z,26.78
2022-08-20T14:24:26.193Z,26.61
2022-08-20T14:28:34.625Z,26.52
2022-08-20T14:32:43.322Z,26.48
2022-08-20T14:36:50.813Z,26.46
2022-08-20T14:40:59.233Z,26.41
2022-08-20T14:45:09.151Z,26.34
2022-08-20T14:49:17.896Z,26.25
2022-08-20T14:53:25.850Z,26.16
2022-08-20T14:57:33.756Z,26.03
2022-08-20T15:01:41.728Z,25.86
2022-08-20T15:05:50.241Z,25.70
2022-08-20T15:09:58.799Z,25.51
2022-08-20T15:14:06.762Z,25.07
2022-08-20T15:18:14.394Z,24.66
2022-08-20T15:22:21.967Z,24.47
2022-08-20T15:26:31.962Z,24.34
2022-08-20T15:30:41.748Z,24.20
2022-08-20T15:34:52.189Z,23.99
2022-08-20T15:39:02.284Z,23.85
2022-08-20T15:43:10.259Z,23.68
2022-08-20T15:47:24.782Z,23.56
2022-08-20T15:51:38.464Z,23.40
2022-08-20T15:55:54.242Z,23.27
2022-08-20T16:00:10.741Z,23.15
2022-08-20T16:04:38.664Z,23.06
2022-08-20T16:09:00.962Z,22.97
2022-08-20T16:13:14.615Z,22.87
2022-08-20T16:17:30.799Z,22.70
2022-08-20T16:21:42.234Z,22.57
2022-08-20T16:25:58.608Z,22.53
2022-08-20T16:30:10.017Z,22.55
2022-08-20T16:34:33.332Z,22.56
2022-08-20T16:38:52.563Z,22.50
2022-08-20T16:43:04.707Z,22.45
2022-08-20T16:47:18.394Z,22.43
2022-08-20T16:51:40.958Z,22.39
2022-08-20T16:55:49.086Z,22.33
2022-08-20T17:00:08.245Z,22.26
2022-08-20T17:04:24.703Z,22.22
2022-08-20T17:08:36.159Z,22.20
2022-08-20T17:12:43.942Z,22.16
2022-08-20T17:16:55.210Z,22.13
2022-08-20T17:21:13.623Z,22.11
2022-08-20T17:25:30.707Z,22.07
2022-08-20T17:29:49.660Z,22.08
2022-08-20T17:33:57.970Z,22.03
2022-08-20T17:38:07.208Z,21.93
2022-08-20T17:42:19.361Z,21.85
2022-08-20T17:46:29.119Z,21.81
2022-08-20T17:50:40.956Z,21.78
2022-08-20T17:54:51.154Z,21.76
2022-08-20T17:59:05.883Z,21.73
2022-08-20T18:03:22.711Z,21.69
2022-08-20T18:07:40.192Z,21.63
2022-08-20T18:11:54.323Z,21.57
2022-08-20T18:16:04.092Z,21.50
2022-08-20T18:20:26.945Z,21.43
2022-08-20T18:24:40.384Z,21.35
2022-08-20T18:28:52.199Z,21.30
2022-08-20T18:33:06.962Z,21.26
2022-08-20T18:37:28.272Z,21.25
2022-08-20T18:41:38.442Z,21.24
2022-08-20T18:45:45.737Z,21.23
2022-08-20T18:50:16.101Z,21.23
2022-08-20T18:54:28.234Z,21.26
2022-08-20T18:58:38.536Z,21.28
2022-08-20T19:03:03.453Z,21.30
2022-08-20T19:07:15.493Z,21.32
2022-08-20T19:11:49.146Z,21.31
2022-08-20T19:16:00.921Z,21.29
2022-08-20T19:20:12.573Z,21.26
2022-08-20T19:24:25.889Z,21.24
2022-08-20T19:28:36.587Z,21.24
2022-08-20T19:32:54.040Z,21.22
2022-08-20T19:37:27.757Z,21.15
2022-08-20T19:41:37.106Z,21.07
2022-08-20T19:45:49.149Z,21.01
2022-08-20T19:50:04.903Z,20.94
2022-08-20T19:54:22.382Z,20.92
2022-08-20T19:58:31.888Z,20.92
2022-08-20T20:02:41.754Z,20.86
2022-08-20T20:06:51.958Z,20.76
2022-08-20T20:11:02.223Z,20.67
2022-08-20T20:15:11.158Z,20.60
2022-08-20T20:19:26.645Z,20.56
2022-08-20T20:23:41.649Z,20.52
2022-08-20T20:27:56.560Z,20.49
2022-08-20T20:32:14.225Z,20.43
2022-08-20T20:36:34.605Z,20.39
2022-08-20T20:40:49.262Z,20.33
2022-08-20T20:44:57.926Z,20.30
2022-08-20T20:49:17.851Z,20.27
2022-08-20T20:53:50.907Z,20.26
2022-08-20T20:58:02.713Z,20.26
2022-08-20T21:02:10.878Z,20.24
2022-08-20T21:06:18.555Z,20.21
2022-08-20T21:10:28.401Z,20.16
2022-08-20T21:14:36.210Z,20.12
2022-08-20T21:18:43.525Z,20.08
2022-08-20T21:22:51.279Z,20.04
2022-08-20T21:26:59.657Z,20.00
2022-08-20T21:31:07.563Z,19.97
2022-08-20T21:35:15.913Z,19.93
2022-08-20T21:39:23.701Z,19.92
2022-08-20T21:43:33.820Z,19.91
2022-08-20T21:47:44.061Z,19.91
2022-08-20T21:51:55.234Z,19.91
2022-08-20T21:56:02.923Z,19.89
2022-08-20T22:00:18.666Z,19.87
2022-08-20T22:04:27.775Z,19.86
2022-08-20T22:08:36.117Z,19.83
2022-08-20T22:12:43.805Z,19.77
2022-08-20T22:16:51.352Z,19.75
2022-08-20T22:20:59.241Z,19.72
2022-08-20T22:25:07.833Z,19.71
2022-08-20T22:29:19.724Z,19.66
2022-08-20T22:33:27.595Z,19.63
2022-08-20T22:37:36.381Z,19.59
2022-08-20T22:41:44.374Z,19.58
2022-08-20T22:45:54.481Z,19.56
2022-08-20T22:50:02.532Z,19.56
2022-08-20T22:54:12.424Z,19.55
2022-08-20T22:58:20.823Z,19.51
2022-08-20T23:02:39.249Z,19.46
2022-08-20T23:06:47.001Z,19.42
2022-08-20T23:10:57.377Z,19.37
2022-08-20T23:15:04.988Z,19.36
2022-08-20T23:19:15.189Z,19.33
2022-08-20T23:23:24.072Z,19.30
2022-08-20T23:27:32.718Z,19.24
2022-08-20T23:31:40.241Z,19.17
2022-08-20T23:35:47.904Z,19.14
2022-08-20T23:39:55.941Z,19.12
2022-08-20T23:44:03.852Z,19.09
2022-08-20T23:48:12.149Z,19.07
2022-08-20T23:52:20.862Z,19.04
2022-08-20T23:56:28.986Z,19.02
